Terminal Aerodrome Forecast
Issued by NWS Cleveland, OH

Home | Current Version | Previous Version | Text Only | Print | Product List | Glossary Off
Versions: 1 2 3 4 5 6 7 8 9 10 11 12 13 14 15 16 17 18 19

000
FTUS41 KCLE 170200 AAA
TAFERI
TAF AMD
KERI 170207Z 1702/1724 25012KT 6SM -RA BR OVC012
     FM170400 25012G22KT 6SM -RA BR OVC008
     FM171300 25015G25KT 6SM -SHSN OVC012
     FM172100 25015G25KT 2SM -SHSN OVC015=

USA.gov is the U.S. government's official web portal to all federal, state and local government web resources and services.